Terminal Aerodrome Forecast
Issued by NWS St Louis, MO

Home | Current Version | Previous Version | Text Only | Print | Product List | Glossary On
Versions: 1 2 3 4 5 6 7 8 9 10 11 12 13 14 15 16 17 18 19 20 21 22 23
000
FTUS43 KLSX 190900 AAA
TAFSTL
TAF AMD
KSTL 190908Z 1909/2012 VRB03KT P6SM FEW060 BKN200
     FM191100 VRB04KT P6SM -RA BKN050 OVC100
     FM191300 VRB05KT 4SM -RA BR BKN040 OVC080
     FM191900 30009KT P6SM VCTS BKN040CB
     FM192300 24008KT P6SM SCT035 BKN150
     FM201000 30012G18KT P6SM OVC030=

USA.gov is the U.S. government's official web portal to all federal, state and local government web resources and services.